createdAt,value
2022-08-22T00:02:41.977Z,50.96
2022-08-22T00:03:07.257Z,52.60
2022-08-22T00:03:11.263Z,44.71
2022-08-22T00:15:42.181Z,43.45
2022-08-22T00:26:25.704Z,39.05
2022-08-22T00:43:25.972Z,33.30
2022-08-22T00:44:24.975Z,39.52
2022-08-22T00:45:24.810Z,43.81
2022-08-22T00:46:24.737Z,39.77
2022-08-22T00:47:24.765Z,39.26
2022-08-22T00:48:24.737Z,38.52
2022-08-22T00:49:25.447Z,42.61
2022-08-22T00:50:25.782Z,47.04
2022-08-22T01:05:22.264Z,43.20
2022-08-22T01:06:21.991Z,38.04
2022-08-22T01:11:09.518Z,44.64
2022-08-22T01:12:11.002Z,50.91
2022-08-22T01:13:10.762Z,47.39
2022-08-22T01:14:10.530Z,47.33
2022-08-22T01:15:10.730Z,42.37
2022-08-22T01:16:10.630Z,39.54
2022-08-22T01:17:10.729Z,46.70
2022-08-22T01:29:00.176Z,38.57
2022-08-22T01:30:00.016Z,48.12
2022-08-22T01:30:59.768Z,46.45
2022-08-22T01:31:59.796Z,43.65
2022-08-22T01:43:17.357Z,50.75
2022-08-22T01:44:17.115Z,46.42
2022-08-22T01:45:17.037Z,44.49
2022-08-22T01:46:20.731Z,36.91
2022-08-22T01:54:19.860Z,52.21
2022-08-22T01:55:27.528Z,50.08
2022-08-22T01:56:19.923Z,48.39
2022-08-22T01:57:20.130Z,51.03
2022-08-22T01:58:19.829Z,45.12
2022-08-22T02:12:13.870Z,41.49
2022-08-22T02:13:09.928Z,39.33
2022-08-22T02:14:08.889Z,62.66
2022-08-22T02:15:16.568Z,47.28
2022-08-22T02:16:08.898Z,43.00
2022-08-22T02:22:44.391Z,44.75
2022-08-22T02:23:44.062Z,46.46
2022-08-22T02:24:43.893Z,56.15
2022-08-22T02:25:43.953Z,46.01
2022-08-22T02:26:43.848Z,55.80
2022-08-22T02:27:43.842Z,48.68
2022-08-22T02:28:57.144Z,55.77
2022-08-22T02:29:44.786Z,50.47
2022-08-22T02:30:43.810Z,43.28
2022-08-22T02:31:43.774Z,54.17
2022-08-22T02:53:11.957Z,49.14
2022-08-22T02:54:11.888Z,42.25
2022-08-22T02:55:11.982Z,47.75
2022-08-22T02:56:13.199Z,53.96
2022-08-22T02:57:14.410Z,58.66
2022-08-22T02:58:13.132Z,55.22
2022-08-22T02:59:13.093Z,58.15
2022-08-22T03:00:32.003Z,49.42
2022-08-22T03:01:14.681Z,47.64
2022-08-22T03:02:13.051Z,48.30
2022-08-22T03:03:12.940Z,57.01
2022-08-22T03:04:47.696Z,60.37
2022-08-22T03:05:13.234Z,57.33
2022-08-22T03:06:13.169Z,57.73
2022-08-22T03:07:12.973Z,61.04
2022-08-22T03:20:23.703Z,53.08
2022-08-22T03:36:43.725Z,55.59
2022-08-22T03:37:43.695Z,57.85
2022-08-22T03:38:43.701Z,60.67
2022-08-22T03:39:43.698Z,59.29
2022-08-22T03:40:44.868Z,55.87
2022-08-22T03:41:44.835Z,56.10
2022-08-22T03:42:44.833Z,57.90
2022-08-22T03:43:44.871Z,59.62
2022-08-22T03:44:44.807Z,59.77
2022-08-22T03:45:44.848Z,56.07
2022-08-22T03:46:44.780Z,58.41
2022-08-22T03:47:44.757Z,57.66
2022-08-22T03:48:44.809Z,58.50
2022-08-22T03:49:44.797Z,60.29
2022-08-22T03:50:44.770Z,59.45
2022-08-22T03:51:44.745Z,61.12
2022-08-22T03:52:44.714Z,59.91
2022-08-22T03:53:44.727Z,62.39
2022-08-22T03:54:44.704Z,59.09
2022-08-22T03:55:44.707Z,61.44
2022-08-22T03:56:44.738Z,62.33
2022-08-22T03:57:44.684Z,58.62
2022-08-22T03:58:44.699Z,61.68
2022-08-22T03:59:44.656Z,60.60
2022-08-22T04:00:44.671Z,60.83
2022-08-22T04:01:44.643Z,58.35
2022-08-22T04:02:44.625Z,64.10
2022-08-22T04:03:44.667Z,60.22
2022-08-22T04:04:44.677Z,61.74
2022-08-22T04:05:44.607Z,65.05
2022-08-22T04:06:44.593Z,63.35
2022-08-22T04:07:44.576Z,61.99
2022-08-22T04:08:44.911Z,62.74
2022-08-22T04:09:44.576Z,60.42
2022-08-22T04:10:44.570Z,60.42
2022-08-22T04:11:44.541Z,58.86
2022-08-22T04:12:44.509Z,58.58
2022-08-22T04:13:44.568Z,60.22
2022-08-22T04:14:44.471Z,58.48
2022-08-22T04:15:44.515Z,59.72
2022-08-22T04:16:44.498Z,59.23
2022-08-22T04:17:44.501Z,58.89
2022-08-22T04:18:45.608Z,61.36
2022-08-22T04:19:44.533Z,61.30
2022-08-22T04:20:44.415Z,58.22
2022-08-22T04:21:44.431Z,58.82
2022-08-22T04:22:44.452Z,60.35
2022-08-22T04:23:44.469Z,61.39
2022-08-22T04:24:44.420Z,59.42
2022-08-22T04:25:45.428Z,59.49
2022-08-22T04:26:44.426Z,62.55
2022-08-22T04:27:44.339Z,61.68
2022-08-22T04:28:44.402Z,60.88
2022-08-22T04:29:45.038Z,62.55
2022-08-22T04:30:44.342Z,61.88
2022-08-22T04:31:44.346Z,60.02
2022-08-22T04:32:44.389Z,60.14
2022-08-22T04:33:44.335Z,61.89
2022-08-22T04:34:44.335Z,60.07
2022-08-22T04:35:44.257Z,60.83
2022-08-22T04:36:44.279Z,62.29
2022-08-22T04:37:44.308Z,62.63
2022-08-22T04:38:44.289Z,63.13
2022-08-22T04:39:44.308Z,60.28
2022-08-22T04:40:44.272Z,61.53
2022-08-22T04:41:44.263Z,58.67
2022-08-22T04:42:44.231Z,62.70
2022-08-22T04:43:44.217Z,62.76
2022-08-22T04:44:44.196Z,62.57
2022-08-22T04:45:44.208Z,60.93
2022-08-22T04:46:44.164Z,60.49
2022-08-22T04:47:44.343Z,62.03
2022-08-22T04:48:45.177Z,60.95
2022-08-22T04:49:44.139Z,60.34
2022-08-22T04:50:44.171Z,60.57
2022-08-22T04:51:44.165Z,59.19
2022-08-22T04:52:44.142Z,59.54
2022-08-22T04:53:44.116Z,59.28
2022-08-22T04:54:44.086Z,62.48
2022-08-22T04:55:44.087Z,61.45
2022-08-22T04:56:44.088Z,62.88
2022-08-22T04:57:44.097Z,61.72
2022-08-22T04:58:44.059Z,61.47
2022-08-22T04:59:44.078Z,60.57
2022-08-22T05:00:44.056Z,60.25
2022-08-22T05:01:44.092Z,60.93
2022-08-22T05:02:44.051Z,61.97
2022-08-22T05:03:45.047Z,60.05
2022-08-22T05:04:45.008Z,60.07
2022-08-22T05:05:44.008Z,57.99
2022-08-22T05:06:44.027Z,59.90
2022-08-22T05:07:44.018Z,59.13
2022-08-22T05:08:43.989Z,60.38
2022-08-22T05:09:43.965Z,61.54
2022-08-22T05:10:43.959Z,60.53
2022-08-22T05:11:43.948Z,60.34
2022-08-22T05:12:43.952Z,61.97
2022-08-22T05:13:43.927Z,61.85
2022-08-22T05:14:43.911Z,63.00
2022-08-22T05:15:44.891Z,60.95
2022-08-22T05:16:43.920Z,59.97
2022-08-22T05:17:43.931Z,60.20
2022-08-22T05:18:43.882Z,61.40
2022-08-22T05:19:43.824Z,61.19
2022-08-22T05:20:43.834Z,61.36
2022-08-22T05:21:43.859Z,61.08
2022-08-22T05:22:43.889Z,61.60
2022-08-22T05:23:43.817Z,59.94
2022-08-22T05:24:43.831Z,61.24
2022-08-22T05:25:43.821Z,59.61
2022-08-22T05:26:43.802Z,62.21
2022-08-22T05:27:43.782Z,59.84
2022-08-22T05:28:43.757Z,61.67
2022-08-22T05:29:43.773Z,59.99
2022-08-22T05:30:43.761Z,60.93
2022-08-22T05:31:43.761Z,60.61
2022-08-22T05:32:43.750Z,60.07
2022-08-22T05:33:43.744Z,61.11
2022-08-22T05:34:43.775Z,60.16
2022-08-22T05:35:48.599Z,60.54
2022-08-22T05:36:45.716Z,60.50
2022-08-22T05:37:43.659Z,59.28
2022-08-22T05:38:43.691Z,55.22
2022-08-22T05:39:43.686Z,60.32
2022-08-22T05:40:43.706Z,59.35
2022-08-22T05:41:43.649Z,59.39
2022-08-22T05:42:43.648Z,58.94
2022-08-22T05:43:43.649Z,59.48
2022-08-22T05:44:43.653Z,59.29
2022-08-22T05:45:43.631Z,58.66
2022-08-22T05:46:43.617Z,57.99
2022-08-22T05:47:43.607Z,59.75
2022-08-22T05:48:43.737Z,59.12
2022-08-22T05:49:43.607Z,57.83
2022-08-22T05:50:43.535Z,56.81
2022-08-22T05:51:43.526Z,58.32
2022-08-22T05:52:43.610Z,59.56
2022-08-22T05:53:43.538Z,57.96
2022-08-22T05:54:43.532Z,57.28
2022-08-22T05:55:43.517Z,57.31
2022-08-22T05:56:43.516Z,58.20
2022-08-22T05:57:43.518Z,53.58
2022-08-22T05:58:43.506Z,59.52
2022-08-22T05:59:43.501Z,58.33
2022-08-22T06:00:43.463Z,58.47
2022-08-22T06:01:43.450Z,55.55
2022-08-22T06:02:43.470Z,58.11
2022-08-22T06:03:43.440Z,56.19
2022-08-22T06:04:43.404Z,57.17
2022-08-22T06:05:43.463Z,52.70
2022-08-22T06:06:43.374Z,57.24
2022-08-22T06:07:43.408Z,59.94
2022-08-22T06:08:43.475Z,56.76
2022-08-22T06:09:43.386Z,57.75
2022-08-22T06:10:43.339Z,55.47
2022-08-22T06:11:44.861Z,57.18
2022-08-22T06:12:44.415Z,54.41
2022-08-22T06:13:43.357Z,55.97
2022-08-22T06:14:43.352Z,57.59
2022-08-22T06:15:43.369Z,55.22
2022-08-22T06:16:48.577Z,56.81
2022-08-22T06:17:43.372Z,55.57
2022-08-22T06:18:43.289Z,55.96
2022-08-22T06:19:43.306Z,55.94
2022-08-22T06:20:43.272Z,54.38
2022-08-22T06:21:43.268Z,58.20
2022-08-22T06:22:43.273Z,59.55
2022-08-22T06:23:43.306Z,54.59
2022-08-22T06:24:43.207Z,56.66
2022-08-22T06:25:43.272Z,55.75
2022-08-22T06:26:45.243Z,55.22
2022-08-22T06:27:44.225Z,52.08
2022-08-22T06:28:46.708Z,57.00
2022-08-22T06:29:44.236Z,56.40
2022-08-22T06:30:43.171Z,57.50
2022-08-22T06:31:43.167Z,58.46
2022-08-22T06:32:59.543Z,51.42
2022-08-22T06:33:45.877Z,54.11
2022-08-22T06:34:44.125Z,56.29
2022-08-22T06:35:43.142Z,55.39
2022-08-22T06:36:43.136Z,55.30
2022-08-22T06:37:43.178Z,56.23
2022-08-22T06:38:43.115Z,54.95
2022-08-22T06:39:44.141Z,56.41
2022-08-22T06:40:43.094Z,58.14
2022-08-22T06:41:43.117Z,54.62
2022-08-22T06:42:43.088Z,56.55
2022-08-22T06:43:43.061Z,55.14
2022-08-22T06:44:43.029Z,55.15
2022-08-22T06:45:43.066Z,56.11
2022-08-22T06:46:43.026Z,56.00
2022-08-22T06:47:43.511Z,55.64
2022-08-22T06:48:44.051Z,55.84
2022-08-22T06:49:43.015Z,57.36
2022-08-22T06:50:43.031Z,55.89
2022-08-22T06:51:42.963Z,56.12
2022-08-22T06:52:43.004Z,55.20
2022-08-22T06:53:47.902Z,57.41
2022-08-22T06:54:43.999Z,55.25
2022-08-22T06:55:42.965Z,56.72
2022-08-22T06:56:42.938Z,58.17
2022-08-22T06:57:42.945Z,55.84
2022-08-22T06:58:42.944Z,54.65
2022-08-22T06:59:42.962Z,54.03
2022-08-22T07:00:42.936Z,53.53
2022-08-22T07:01:42.911Z,56.65
2022-08-22T07:02:42.882Z,55.24
2022-08-22T07:03:42.904Z,55.78
2022-08-22T07:04:42.876Z,53.95
2022-08-22T07:05:42.852Z,55.45
2022-08-22T07:06:42.837Z,54.54
2022-08-22T07:07:42.845Z,57.06
2022-08-22T07:08:42.852Z,56.23
2022-08-22T07:09:42.800Z,56.60
2022-08-22T07:10:42.805Z,55.16
2022-08-22T07:11:42.779Z,54.38
2022-08-22T07:12:42.815Z,57.02
2022-08-22T07:13:43.564Z,53.32
2022-08-22T07:14:42.752Z,58.05
2022-08-22T07:15:42.816Z,56.60
2022-08-22T07:16:42.766Z,54.63
2022-08-22T07:17:42.713Z,56.58
2022-08-22T07:18:42.749Z,56.32
2022-08-22T07:19:42.754Z,56.12
2022-08-22T07:20:42.698Z,53.29
2022-08-22T07:21:42.747Z,57.01
2022-08-22T07:22:43.657Z,58.19
2022-08-22T07:23:42.835Z,57.49
2022-08-22T07:24:42.754Z,58.31
2022-08-22T07:25:42.686Z,56.41
2022-08-22T07:26:42.683Z,56.79
2022-08-22T07:27:42.625Z,56.38
2022-08-22T07:28:51.217Z,57.43
2022-08-22T07:29:43.734Z,56.70
2022-08-22T07:30:42.595Z,56.92
2022-08-22T07:31:42.725Z,55.18
2022-08-22T07:32:42.606Z,53.74
2022-08-22T07:33:42.767Z,59.43
2022-08-22T07:34:42.631Z,56.53
2022-08-22T07:35:42.571Z,54.83
2022-08-22T07:36:44.495Z,56.83
2022-08-22T07:37:42.634Z,56.74
2022-08-22T07:38:42.700Z,57.43
2022-08-22T07:39:42.544Z,57.15
2022-08-22T07:40:43.374Z,54.88
2022-08-22T07:41:42.562Z,53.65
2022-08-22T07:42:42.511Z,63.02
2022-08-22T07:43:42.516Z,58.65
2022-08-22T07:44:42.469Z,57.22
2022-08-22T07:45:42.469Z,56.30
2022-08-22T07:46:42.425Z,55.76
2022-08-22T07:47:42.910Z,54.94
2022-08-22T07:48:59.507Z,56.40
2022-08-22T07:49:49.630Z,53.49
2022-08-22T07:50:43.409Z,58.99
2022-08-22T07:51:42.460Z,56.32
2022-08-22T07:52:42.535Z,52.24
2022-08-22T07:53:42.385Z,55.28
2022-08-22T07:54:42.419Z,56.70
2022-08-22T07:55:49.685Z,55.36
2022-08-22T07:56:43.480Z,56.51
2022-08-22T07:57:42.375Z,54.43
2022-08-22T07:58:42.569Z,55.05
2022-08-22T07:59:42.312Z,55.55
2022-08-22T08:00:42.273Z,52.89
2022-08-22T08:01:42.420Z,53.49
2022-08-22T08:02:42.358Z,52.20
2022-08-22T08:03:42.555Z,57.38
2022-08-22T08:04:42.316Z,56.89
2022-08-22T08:05:42.287Z,54.93
2022-08-22T08:06:42.518Z,55.49
2022-08-22T08:07:42.223Z,52.03
2022-08-22T08:08:42.250Z,54.55
2022-08-22T08:09:42.257Z,56.17
2022-08-22T08:10:42.238Z,52.88
2022-08-22T08:11:42.233Z,52.01
2022-08-22T08:12:42.185Z,55.97
2022-08-22T08:13:42.355Z,53.74
2022-08-22T08:14:42.185Z,53.63
2022-08-22T08:15:42.234Z,54.17
2022-08-22T08:16:42.153Z,54.28
2022-08-22T08:17:42.141Z,50.49
2022-08-22T08:18:42.120Z,51.82
2022-08-22T08:19:42.104Z,53.46
2022-08-22T08:20:43.085Z,53.43
2022-08-22T08:21:42.115Z,57.12
2022-08-22T08:22:42.180Z,65.65
2022-08-22T08:23:42.232Z,55.92
2022-08-22T08:24:42.740Z,54.74
2022-08-22T08:25:42.089Z,50.33
2022-08-22T08:26:42.139Z,52.84
2022-08-22T08:27:42.063Z,51.33
2022-08-22T08:28:42.048Z,54.05
2022-08-22T08:29:42.034Z,50.60
2022-08-22T08:30:42.122Z,53.98
2022-08-22T08:31:43.370Z,49.37
2022-08-22T08:32:41.990Z,50.37
2022-08-22T08:33:43.044Z,53.13
2022-08-22T08:34:41.990Z,56.26
2022-08-22T08:36:01.981Z,51.30
2022-08-22T08:36:42.995Z,54.01
2022-08-22T08:37:42.006Z,52.71
2022-08-22T08:38:42.078Z,53.56
2022-08-22T08:39:41.957Z,50.69
2022-08-22T08:40:41.943Z,49.11
2022-08-22T08:41:41.938Z,53.56
2022-08-22T08:42:41.942Z,55.01
2022-08-22T08:43:42.035Z,52.73
2022-08-22T08:44:41.877Z,53.25
2022-08-22T08:45:42.523Z,53.81
2022-08-22T08:46:41.863Z,50.69
2022-08-22T08:47:42.887Z,53.37
2022-08-22T08:48:41.834Z,52.99
2022-08-22T08:49:42.859Z,55.35
2022-08-22T08:50:43.289Z,54.39
2022-08-22T08:51:41.845Z,51.49
2022-08-22T08:52:41.863Z,53.82
2022-08-22T08:53:42.819Z,50.56
2022-08-22T08:54:41.853Z,52.89
2022-08-22T08:55:41.796Z,53.36
2022-08-22T08:56:42.782Z,53.35
2022-08-22T08:57:43.527Z,54.78
2022-08-22T08:58:41.759Z,54.28
2022-08-22T08:59:44.204Z,53.34
2022-08-22T09:00:41.707Z,50.27
2022-08-22T09:01:42.445Z,48.99
2022-08-22T09:02:42.619Z,53.71
2022-08-22T09:03:41.815Z,54.51
2022-08-22T09:04:41.703Z,51.15
2022-08-22T09:05:41.763Z,55.89
2022-08-22T09:06:42.368Z,54.00
2022-08-22T09:07:41.610Z,54.78
2022-08-22T09:08:42.339Z,53.11
2022-08-22T09:09:41.660Z,52.33
2022-08-22T09:10:41.729Z,53.58
2022-08-22T09:11:42.591Z,53.73
2022-08-22T09:13:42.735Z,51.72
2022-08-22T09:14:41.626Z,53.17
2022-08-22T09:15:41.823Z,53.74
2022-08-22T09:16:45.618Z,51.53
2022-08-22T09:17:42.645Z,53.16
2022-08-22T09:18:41.673Z,54.85
2022-08-22T09:19:41.545Z,54.82
2022-08-22T09:20:42.463Z,51.27
2022-08-22T09:21:41.587Z,49.80
2022-08-22T09:22:50.863Z,53.50
2022-08-22T09:23:42.552Z,51.61
2022-08-22T09:24:41.486Z,48.94
2022-08-22T09:25:41.573Z,53.86
2022-08-22T09:26:41.467Z,50.71
2022-08-22T09:27:41.537Z,51.80
2022-08-22T09:28:41.528Z,49.21
2022-08-22T09:29:55.147Z,51.29
2022-08-22T09:30:42.493Z,52.75
2022-08-22T09:31:51.831Z,52.56
2022-08-22T09:32:42.450Z,50.62
2022-08-22T09:33:41.453Z,53.08
2022-08-22T09:34:41.391Z,56.56
2022-08-22T09:35:41.466Z,53.17
2022-08-22T09:36:41.422Z,51.68
2022-08-22T09:37:41.472Z,51.54
2022-08-22T09:38:47.712Z,50.88
2022-08-22T09:39:42.627Z,49.33
2022-08-22T09:40:41.317Z,53.18
2022-08-22T09:41:41.425Z,51.91
2022-08-22T09:42:44.915Z,49.91
2022-08-22T09:43:45.145Z,50.39
2022-08-22T09:44:42.299Z,50.63
2022-08-22T09:45:41.316Z,49.54
2022-08-22T09:46:41.376Z,50.39
2022-08-22T09:47:41.260Z,52.89
2022-08-22T09:48:42.552Z,51.59
2022-08-22T09:49:41.294Z,50.74
2022-08-22T09:50:41.259Z,50.82
2022-08-22T09:51:41.154Z,47.60
2022-08-22T09:52:42.295Z,48.54
2022-08-22T09:53:41.228Z,50.68
2022-08-22T09:54:41.214Z,51.00
2022-08-22T09:55:41.985Z,49.98
2022-08-22T09:56:41.181Z,52.65
2022-08-22T09:57:41.394Z,52.36
2022-08-22T09:58:41.722Z,51.39
2022-08-22T09:59:42.335Z,49.22
2022-08-22T10:00:41.442Z,52.48
2022-08-22T10:01:42.368Z,50.48
2022-08-22T10:02:43.499Z,53.85
2022-08-22T10:03:41.210Z,52.66
2022-08-22T10:04:42.022Z,53.31
2022-08-22T10:05:44.954Z,53.00
2022-08-22T10:06:41.196Z,52.37
2022-08-22T10:07:41.067Z,51.97
2022-08-22T10:08:41.050Z,50.78
2022-08-22T10:09:41.095Z,53.13
2022-08-22T10:10:42.041Z,50.03
2022-08-22T10:11:42.190Z,49.69
2022-08-22T10:12:41.003Z,50.89
2022-08-22T10:13:41.107Z,47.20
2022-08-22T10:14:40.994Z,49.21
2022-08-22T10:15:41.981Z,49.83
2022-08-22T10:16:40.990Z,50.67
2022-08-22T10:17:41.445Z,50.09
2022-08-22T10:18:43.910Z,49.82
2022-08-22T10:19:41.919Z,49.33
2022-08-22T10:20:40.915Z,49.37
2022-08-22T10:21:40.975Z,47.26
2022-08-22T10:22:40.865Z,49.23
2022-08-22T10:23:40.952Z,52.45
2022-08-22T10:24:43.732Z,52.85
2022-08-22T10:25:42.250Z,55.45
2022-08-22T10:26:40.906Z,50.00
2022-08-22T10:27:40.877Z,54.70
2022-08-22T10:28:40.893Z,52.52
2022-08-22T10:29:40.885Z,48.32
2022-08-22T10:30:40.873Z,49.10
2022-08-22T10:31:45.159Z,47.78
2022-08-22T10:32:42.906Z,50.34
2022-08-22T10:33:40.803Z,50.89
2022-08-22T10:34:41.004Z,50.45
2022-08-22T10:35:40.796Z,46.40
2022-08-22T10:36:40.869Z,47.66
2022-08-22T10:37:40.730Z,47.77
2022-08-22T10:38:46.232Z,52.03
2022-08-22T10:39:41.775Z,50.73
2022-08-22T10:40:40.743Z,51.25
2022-08-22T10:41:41.363Z,51.34
2022-08-22T10:42:40.721Z,50.36
2022-08-22T10:43:41.007Z,50.49
2022-08-22T10:44:40.694Z,49.89
2022-08-22T10:45:40.690Z,48.43
2022-08-22T10:46:42.284Z,48.69
2022-08-22T10:47:40.663Z,48.40
2022-08-22T10:48:40.744Z,47.28
2022-08-22T10:49:40.712Z,52.49
2022-08-22T10:50:40.641Z,51.36
2022-08-22T10:51:40.681Z,50.99
2022-08-22T10:52:40.668Z,50.47
2022-08-22T10:53:41.482Z,48.83
2022-08-22T10:54:40.617Z,50.08
2022-08-22T10:55:41.556Z,51.81
2022-08-22T10:56:40.705Z,49.66
2022-08-22T10:57:40.771Z,51.56
2022-08-22T10:58:40.580Z,54.42
2022-08-22T10:59:40.569Z,50.42
2022-08-22T11:00:46.401Z,50.22
2022-08-22T11:01:42.011Z,49.33
2022-08-22T11:02:42.202Z,51.77
2022-08-22T11:03:40.579Z,50.89
2022-08-22T11:04:41.256Z,49.63
2022-08-22T11:05:40.552Z,47.78
2022-08-22T11:06:40.481Z,50.86
2022-08-22T11:07:40.491Z,50.71
2022-08-22T11:08:40.440Z,46.13
2022-08-22T11:09:40.453Z,49.47
2022-08-22T11:10:40.427Z,48.24
2022-08-22T11:11:40.550Z,48.63
2022-08-22T11:12:41.682Z,47.47
2022-08-22T11:13:42.311Z,50.10
2022-08-22T11:14:40.407Z,49.98
2022-08-22T11:15:40.439Z,50.68
2022-08-22T11:16:41.868Z,52.22
2022-08-22T11:17:44.762Z,49.83
2022-08-22T11:18:42.522Z,49.59
2022-08-22T11:19:41.438Z,51.80
2022-08-22T11:20:40.334Z,50.24
2022-08-22T11:21:40.320Z,52.51
2022-08-22T11:22:40.355Z,51.64
2022-08-22T11:23:40.367Z,51.49
2022-08-22T11:24:45.547Z,49.87
2022-08-22T11:25:41.302Z,51.68
2022-08-22T11:26:46.853Z,51.66
2022-08-22T11:27:42.280Z,53.78
2022-08-22T11:28:40.252Z,52.60
2022-08-22T11:29:41.252Z,51.73
2022-08-22T11:30:44.906Z,51.13
2022-08-22T11:31:40.334Z,48.94
2022-08-22T11:32:41.359Z,48.53
2022-08-22T11:33:47.300Z,50.59
2022-08-22T11:34:41.269Z,50.00
2022-08-22T11:35:41.015Z,48.99
2022-08-22T11:36:40.255Z,47.74
2022-08-22T11:37:43.423Z,47.48
2022-08-22T11:38:40.134Z,51.82
2022-08-22T11:39:40.246Z,48.30
2022-08-22T11:40:40.146Z,45.36
2022-08-22T11:41:40.148Z,46.95
2022-08-22T11:42:47.749Z,47.80
2022-08-22T11:43:41.900Z,49.68
2022-08-22T11:44:50.446Z,49.57
2022-08-22T11:45:40.258Z,48.53
2022-08-22T11:46:41.674Z,50.04
2022-08-22T11:47:40.076Z,51.14
2022-08-22T11:48:40.472Z,51.85
2022-08-22T11:49:41.096Z,47.12
2022-08-22T11:50:42.250Z,46.71
2022-08-22T11:51:41.854Z,50.48
2022-08-22T11:52:40.171Z,49.47
2022-08-22T11:53:40.365Z,48.86
2022-08-22T11:54:39.979Z,53.64
2022-08-22T11:55:40.106Z,55.13
2022-08-22T11:56:40.181Z,52.48
2022-08-22T11:57:44.313Z,51.49
2022-08-22T11:58:40.094Z,50.94
2022-08-22T11:59:40.187Z,52.38
2022-08-22T12:00:40.043Z,53.96
2022-08-22T12:01:40.022Z,50.94
2022-08-22T12:02:40.200Z,47.28
2022-08-22T12:03:40.071Z,50.30
2022-08-22T12:04:44.058Z,49.99
2022-08-22T12:05:40.043Z,46.43
2022-08-22T12:06:40.471Z,49.95
2022-08-22T12:07:40.030Z,51.01
2022-08-22T12:08:39.928Z,51.60
2022-08-22T12:09:40.047Z,47.49
2022-08-22T12:10:39.959Z,51.33
2022-08-22T12:11:39.909Z,50.48
2022-08-22T12:12:39.908Z,45.95
2022-08-22T12:13:39.898Z,50.30
2022-08-22T12:14:39.896Z,57.53
2022-08-22T12:15:40.441Z,48.91
2022-08-22T12:16:40.031Z,49.84
2022-08-22T12:17:55.081Z,51.65
2022-08-22T12:18:41.372Z,49.62
2022-08-22T12:19:58.872Z,50.46
2022-08-22T12:20:45.313Z,50.10
2022-08-22T12:21:39.854Z,51.12
2022-08-22T12:22:39.773Z,51.05
2022-08-22T12:23:48.968Z,48.49
2022-08-22T12:24:40.756Z,50.74
2022-08-22T12:25:44.620Z,48.60
2022-08-22T12:26:40.569Z,51.61
2022-08-22T12:27:39.748Z,51.45
2022-08-22T12:28:40.813Z,47.53
2022-08-22T12:29:44.907Z,50.12
2022-08-22T12:30:40.790Z,47.50
2022-08-22T12:31:39.762Z,48.66
2022-08-22T12:32:39.727Z,47.38
2022-08-22T12:33:39.702Z,50.31
2022-08-22T12:34:39.786Z,48.27
2022-08-22T12:35:39.684Z,48.22
2022-08-22T12:36:39.678Z,51.32
2022-08-22T12:37:52.680Z,45.80
2022-08-22T12:38:40.639Z,45.71
2022-08-22T12:39:41.046Z,48.93
2022-08-22T12:40:39.658Z,46.25
2022-08-22T12:41:39.719Z,47.10
2022-08-22T12:42:41.851Z,49.51
2022-08-22T12:43:39.994Z,47.53
2022-08-22T12:44:39.559Z,46.93
2022-08-22T12:45:40.593Z,47.37
2022-08-22T12:46:40.469Z,46.86
2022-08-22T12:47:42.157Z,48.32
2022-08-22T12:48:39.576Z,47.05
2022-08-22T12:49:39.588Z,49.05
2022-08-22T12:50:39.569Z,48.49
2022-08-22T12:51:39.536Z,49.52
2022-08-22T12:52:39.519Z,51.37
2022-08-22T12:53:39.608Z,47.36
2022-08-22T12:54:39.482Z,49.56
2022-08-22T12:55:39.432Z,47.38
2022-08-22T12:56:39.437Z,50.41
2022-08-22T12:57:39.421Z,46.99
2022-08-22T12:58:39.688Z,48.89
2022-08-22T12:59:39.561Z,51.52
2022-08-22T13:00:39.525Z,50.23
2022-08-22T13:01:43.153Z,51.30
2022-08-22T13:02:40.509Z,48.69
2022-08-22T13:03:39.583Z,49.91
2022-08-22T13:04:39.369Z,50.68
2022-08-22T13:05:41.054Z,48.72
2022-08-22T13:06:39.352Z,49.83
2022-08-22T13:07:39.521Z,47.24
2022-08-22T13:08:39.349Z,50.76
2022-08-22T13:09:39.383Z,49.88
2022-08-22T13:10:39.354Z,49.56
2022-08-22T13:11:39.361Z,50.72
2022-08-22T13:12:40.073Z,48.48
2022-08-22T13:13:40.527Z,48.56
2022-08-22T13:14:39.355Z,48.31
2022-08-22T13:15:39.316Z,48.77
2022-08-22T13:16:39.375Z,48.89
2022-08-22T13:17:40.292Z,51.71
2022-08-22T13:18:39.266Z,49.15
2022-08-22T13:19:40.429Z,45.57
2022-08-22T13:20:39.352Z,48.00
2022-08-22T13:21:39.271Z,48.84
2022-08-22T13:22:39.213Z,47.47
2022-08-22T13:23:41.899Z,49.40
2022-08-22T13:24:39.458Z,53.37
2022-08-22T13:25:39.217Z,52.44
2022-08-22T13:26:43.224Z,50.88
2022-08-22T13:27:40.156Z,48.14
2022-08-22T13:28:40.241Z,49.32
2022-08-22T13:29:42.830Z,47.02
2022-08-22T13:30:39.321Z,45.34
2022-08-22T13:31:39.158Z,49.23
2022-08-22T13:32:39.162Z,49.47
2022-08-22T13:33:40.187Z,51.38
2022-08-22T13:34:40.104Z,49.98
2022-08-22T13:35:39.887Z,48.85
2022-08-22T13:36:40.233Z,50.04
2022-08-22T13:37:40.112Z,47.76
2022-08-22T13:38:39.094Z,47.95
2022-08-22T13:39:39.994Z,48.74
2022-08-22T13:40:39.036Z,49.01
2022-08-22T13:41:42.701Z,50.83
2022-08-22T13:42:40.990Z,50.14
2022-08-22T13:43:39.009Z,49.78
2022-08-22T13:44:39.017Z,47.60
2022-08-22T13:45:38.978Z,47.10
2022-08-22T13:46:57.964Z,48.01
2022-08-22T13:47:40.980Z,47.80
2022-08-22T13:48:38.982Z,46.01
2022-08-22T13:49:38.990Z,47.49
2022-08-22T13:50:53.510Z,47.97
2022-08-22T13:51:39.970Z,48.87
2022-08-22T13:52:38.974Z,49.57
2022-08-22T13:53:39.049Z,49.18
2022-08-22T13:54:40.162Z,48.50
2022-08-22T13:55:43.087Z,49.90
2022-08-22T13:56:38.985Z,48.28
2022-08-22T13:57:41.318Z,46.56
2022-08-22T13:58:39.208Z,46.46
2022-08-22T13:59:50.850Z,50.19
2022-08-22T14:00:48.688Z,51.31
2022-08-22T14:01:39.873Z,50.14
2022-08-22T14:02:38.826Z,48.32
2022-08-22T14:03:38.887Z,50.72
2022-08-22T14:04:38.816Z,49.62
2022-08-22T14:05:38.854Z,50.42
2022-08-22T14:06:41.376Z,50.41
2022-08-22T14:07:38.838Z,49.05
2022-08-22T14:08:38.790Z,48.86
2022-08-22T14:09:39.844Z,50.87
2022-08-22T14:10:38.734Z,48.66
2022-08-22T14:11:38.755Z,48.90
2022-08-22T14:12:50.600Z,47.94
2022-08-22T14:13:39.779Z,49.51
2022-08-22T14:14:38.825Z,49.02
2022-08-22T14:15:44.749Z,48.03
2022-08-22T14:16:39.718Z,49.96
2022-08-22T14:17:42.739Z,47.58
2022-08-22T14:18:45.598Z,47.75
2022-08-22T14:19:53.188Z,49.54
2022-08-22T14:20:39.660Z,49.12
2022-08-22T14:21:40.251Z,48.73
2022-08-22T14:22:38.645Z,47.82
2022-08-22T14:23:39.748Z,49.42
2022-08-22T14:24:41.424Z,47.40
2022-08-22T14:25:39.650Z,49.00
2022-08-22T14:26:47.754Z,48.19
2022-08-22T14:27:39.923Z,48.12
2022-08-22T14:28:38.651Z,45.79
2022-08-22T14:29:38.669Z,49.74
2022-08-22T14:30:40.273Z,49.52
2022-08-22T14:31:40.574Z,49.70
2022-08-22T14:32:41.802Z,52.53
2022-08-22T14:33:40.111Z,51.71
2022-08-22T14:34:38.555Z,51.98
2022-08-22T14:35:38.565Z,49.70
2022-08-22T14:36:38.505Z,50.73
2022-08-22T14:37:39.040Z,52.03
2022-08-22T14:38:38.504Z,50.48
2022-08-22T14:39:42.861Z,52.23
2022-08-22T14:40:39.486Z,52.20
2022-08-22T14:41:55.521Z,52.97
2022-08-22T14:42:39.458Z,50.67
2022-08-22T14:43:40.512Z,50.45
2022-08-22T14:44:38.458Z,52.72
2022-08-22T14:45:38.447Z,51.99
2022-08-22T14:46:38.422Z,52.13
2022-08-22T14:47:55.290Z,50.58
2022-08-22T14:48:40.879Z,51.17
2022-08-22T14:49:39.478Z,50.35
2022-08-22T14:50:38.378Z,49.75
2022-08-22T14:51:38.431Z,48.68
2022-08-22T14:52:38.376Z,49.79
2022-08-22T14:53:38.620Z,49.22
2022-08-22T14:54:38.386Z,50.47
2022-08-22T14:55:38.326Z,50.42
2022-08-22T14:56:38.388Z,46.85
2022-08-22T14:57:38.353Z,48.51
2022-08-22T14:58:38.878Z,47.05
2022-08-22T14:59:38.350Z,47.31
2022-08-22T15:00:38.501Z,50.57
2022-08-22T15:01:38.483Z,52.71
2022-08-22T15:02:38.317Z,49.74
2022-08-22T15:03:38.931Z,50.03
2022-08-22T15:04:38.296Z,50.28
2022-08-22T15:05:38.255Z,49.57
2022-08-22T15:06:38.263Z,47.99
2022-08-22T15:07:39.718Z,47.88
2022-08-22T15:08:42.251Z,45.25
2022-08-22T15:09:40.585Z,46.73
2022-08-22T15:10:42.418Z,47.70
2022-08-22T15:11:42.293Z,47.89
2022-08-22T15:12:38.331Z,51.07
2022-08-22T15:13:38.237Z,50.22
2022-08-22T15:14:38.227Z,48.31
2022-08-22T15:15:49.458Z,48.97
2022-08-22T15:16:40.432Z,46.87
2022-08-22T15:17:38.277Z,47.10
2022-08-22T15:18:39.103Z,47.55
2022-08-22T15:19:41.285Z,47.04
2022-08-22T15:20:45.428Z,48.21
2022-08-22T15:21:41.541Z,46.93
2022-08-22T15:22:38.196Z,46.03
2022-08-22T15:23:45.142Z,47.38